sensor_id;sensor_type;location;lat;lon;timestamp;pressure;altitude;pressure_sealevel;temperature
76713;BMP280;65640;43.154;25.658;2023-11-21T00:01:05;100509.13;;;4.30
76713;BMP280;65640;43.154;25.658;2023-11-21T00:03:30;100513.06;;;4.20
76713;BMP280;65640;43.154;25.658;2023-11-21T00:05:56;100510.00;;;4.12
76713;BMP280;65640;43.154;25.658;2023-11-21T00:08:21;100518.66;;;4.06
76713;BMP280;65640;43.154;25.658;2023-11-21T00:10:47;100514.13;;;4.01
76713;BMP280;65640;43.154;25.658;2023-11-21T00:13:12;100522.09;;;4.00
76713;BMP280;65640;43.154;25.658;2023-11-21T00:15:38;100525.00;;;3.92
76713;BMP280;65640;43.154;25.658;2023-11-21T00:18:03;100529.28;;;3.98
76713;BMP280;65640;43.154;25.658;2023-11-21T00:20:28;100521.63;;;3.91
76713;BMP280;65640;43.154;25.658;2023-11-21T00:22:54;100525.44;;;3.88
76713;BMP280;65640;43.154;25.658;2023-11-21T00:25:19;100522.34;;;3.80
76713;BMP280;65640;43.154;25.658;2023-11-21T00:27:45;100524.28;;;3.84
76713;BMP280;65640;43.154;25.658;2023-11-21T00:30:10;100521.19;;;3.76
76713;BMP280;65640;43.154;25.658;2023-11-21T00:32:36;100523.16;;;3.80
76713;BMP280;65640;43.154;25.658;2023-11-21T00:35:02;100523.94;;;3.81
76713;BMP280;65640;43.154;25.658;2023-11-21T00:37:27;100516.38;;;3.79
76713;BMP280;65640;43.154;25.658;2023-11-21T00:39:52;100516.38;;;3.79
76713;BMP280;65640;43.154;25.658;2023-11-21T00:42:18;100511.91;;;3.86
76713;BMP280;65640;43.154;25.658;2023-11-21T00:44:43;100506.53;;;3.70
76713;BMP280;65640;43.154;25.658;2023-11-21T00:47:08;100505.75;;;3.69
76713;BMP280;65640;43.154;25.658;2023-11-21T00:49:33;100501.44;;;3.63
76713;BMP280;65640;43.154;25.658;2023-11-21T00:51:59;100499.31;;;3.60
76713;BMP280;65640;43.154;25.658;2023-11-21T00:54:24;100500.56;;;3.51
76713;BMP280;65640;43.154;25.658;2023-11-21T00:56:49;100495.97;;;3.53
76713;BMP280;65640;43.154;25.658;2023-11-21T00:59:14;100502.31;;;3.57
76713;BMP280;65640;43.154;25.658;2023-11-21T01:01:40;100497.78;;;3.52
76713;BMP280;65640;43.154;25.658;2023-11-21T01:04:05;100501.38;;;3.51
76713;BMP280;65640;43.154;25.658;2023-11-21T01:06:32;100498.44;;;3.48
76713;BMP280;65640;43.154;25.658;2023-11-21T01:08:57;100495.78;;;3.36
76713;BMP280;65640;43.154;25.658;2023-11-21T01:11:22;100496.41;;;3.32
76713;BMP280;65640;43.154;25.658;2023-11-21T01:13:47;100495.13;;;3.41
76713;BMP280;65640;43.154;25.658;2023-11-21T01:16:13;100499.78;;;3.32
76713;BMP280;65640;43.154;25.658;2023-11-21T01:18:38;100501.78;;;3.30
76713;BMP280;65640;43.154;25.658;2023-11-21T01:21:03;100497.47;;;3.24
76713;BMP280;65640;43.154;25.658;2023-11-21T01:23:29;100497.91;;;3.21
76713;BMP280;65640;43.154;25.658;2023-11-21T01:25:55;100492.63;;;3.34
76713;BMP280;65640;43.154;25.658;2023-11-21T01:28:20;100496.25;;;3.27
76713;BMP280;65640;43.154;25.658;2023-11-21T01:30:46;100503.59;;;3.11
76713;BMP280;65640;43.154;25.658;2023-11-21T01:33:11;100491.25;;;3.13
76713;BMP280;65640;43.154;25.658;2023-11-21T01:35:37;100494.09;;;3.05
76713;BMP280;65640;43.154;25.658;2023-11-21T01:38:02;100483.69;;;3.12
76713;BMP280;65640;43.154;25.658;2023-11-21T01:40:28;100488.75;;;3.00
76713;BMP280;65640;43.154;25.658;2023-11-21T01:42:55;100487.00;;;2.94
76713;BMP280;65640;43.154;25.658;2023-11-21T01:45:21;100481.81;;;2.94
76713;BMP280;65640;43.154;25.658;2023-11-21T01:47:46;100479.50;;;2.93
76713;BMP280;65640;43.154;25.658;2023-11-21T01:50:15;100474.66;;;2.96
76713;BMP280;65640;43.154;25.658;2023-11-21T01:52:41;100461.31;;;2.99
76713;BMP280;65640;43.154;25.658;2023-11-21T01:55:08;100470.06;;;2.98
76713;BMP280;65640;43.154;25.658;2023-11-21T01:57:35;100473.75;;;2.91
76713;BMP280;65640;43.154;25.658;2023-11-21T02:00:02;100472.16;;;2.90
76713;BMP280;65640;43.154;25.658;2023-11-21T02:02:43;100464.47;;;2.83
76713;BMP280;65640;43.154;25.658;2023-11-21T02:05:09;100467.25;;;2.81
76713;BMP280;65640;43.154;25.658;2023-11-21T02:07:34;100481.81;;;2.94
76713;BMP280;65640;43.154;25.658;2023-11-21T02:10:00;100479.13;;;2.89
76713;BMP280;65640;43.154;25.658;2023-11-21T02:12:25;100477.81;;;2.80
76713;BMP280;65640;43.154;25.658;2023-11-21T02:14:51;100478.59;;;2.80
76713;BMP280;65640;43.154;25.658;2023-11-21T02:17:17;100483.38;;;2.77
76713;BMP280;65640;43.154;25.658;2023-11-21T02:19:43;100470.09;;;2.73
76713;BMP280;65640;43.154;25.658;2023-11-21T02:22:09;100474.44;;;2.79
76713;BMP280;65640;43.154;25.658;2023-11-21T02:24:35;100474.03;;;2.76
76713;BMP280;65640;43.154;25.658;2023-11-21T02:27:01;100480.72;;;2.90
76713;BMP280;65640;43.154;25.658;2023-11-21T02:29:27;100479.25;;;2.94
76713;BMP280;65640;43.154;25.658;2023-11-21T02:31:52;100478.63;;;2.74
76713;BMP280;65640;43.154;25.658;2023-11-21T02:34:19;100477.25;;;2.71
76713;BMP280;65640;43.154;25.658;2023-11-21T02:36:45;100479.72;;;2.91
76713;BMP280;65640;43.154;25.658;2023-11-21T02:39:10;100476.25;;;2.72
76713;BMP280;65640;43.154;25.658;2023-11-21T02:41:38;100472.88;;;2.72
76713;BMP280;65640;43.154;25.658;2023-11-21T02:44:04;100465.56;;;2.69
76713;BMP280;65640;43.154;25.658;2023-11-21T02:46:31;100463.84;;;2.63
76713;BMP280;65640;43.154;25.658;2023-11-21T02:48:58;100465.41;;;2.64
76713;BMP280;65640;43.154;25.658;2023-11-21T02:51:24;100462.53;;;2.72
76713;BMP280;65640;43.154;25.658;2023-11-21T02:53:49;100458.41;;;2.71
76713;BMP280;65640;43.154;25.658;2023-11-21T02:56:16;100459.53;;;2.75
76713;BMP280;65640;43.154;25.658;2023-11-21T02:58:41;100463.72;;;2.76
76713;BMP280;65640;43.154;25.658;2023-11-21T03:01:06;100464.41;;;2.65
76713;BMP280;65640;43.154;25.658;2023-11-21T03:03:33;100467.72;;;2.72
76713;BMP280;65640;43.154;25.658;2023-11-21T03:05:58;100457.88;;;2.62
76713;BMP280;65640;43.154;25.658;2023-11-21T03:08:23;100465.00;;;2.67
76713;BMP280;65640;43.154;25.658;2023-11-21T03:10:49;100464.72;;;2.75
76713;BMP280;65640;43.154;25.658;2023-11-21T03:13:14;100464.34;;;2.71
76713;BMP280;65640;43.154;25.658;2023-11-21T03:15:39;100460.69;;;2.61
76713;BMP280;65640;43.154;25.658;2023-11-21T03:18:04;100458.34;;;2.53
76713;BMP280;65640;43.154;25.658;2023-11-21T03:20:30;100458.72;;;2.56
76713;BMP280;65640;43.154;25.658;2023-11-21T03:22:55;100461.69;;;2.60
76713;BMP280;65640;43.154;25.658;2023-11-21T03:25:20;100458.81;;;2.43
76713;BMP280;65640;43.154;25.658;2023-11-21T03:27:48;100457.81;;;2.44
76713;BMP280;65640;43.154;25.658;2023-11-21T03:30:14;100456.84;;;2.38
76713;BMP280;65640;43.154;25.658;2023-11-21T03:32:40;100458.44;;;2.39
76713;BMP280;65640;43.154;25.658;2023-11-21T03:35:05;100459.19;;;2.47
76713;BMP280;65640;43.154;25.658;2023-11-21T03:37:31;100457.03;;;2.43
76713;BMP280;65640;43.154;25.658;2023-11-21T03:39:56;100458.44;;;2.39
76713;BMP280;65640;43.154;25.658;2023-11-21T03:42:21;100468.53;;;2.48
76713;BMP280;65640;43.154;25.658;2023-11-21T03:44:46;100468.75;;;2.39
76713;BMP280;65640;43.154;25.658;2023-11-21T03:47:12;100466.41;;;2.31
76713;BMP280;65640;43.154;25.658;2023-11-21T03:49:37;100472.16;;;2.33
76713;BMP280;65640;43.154;25.658;2023-11-21T03:52:02;100469.59;;;2.33
76713;BMP280;65640;43.154;25.658;2023-11-21T03:54:28;100469.09;;;2.25
76713;BMP280;65640;43.154;25.658;2023-11-21T03:56:53;100473.59;;;2.29
76713;BMP280;65640;43.154;25.658;2023-11-21T03:59:18;100470.28;;;2.22
76713;BMP280;65640;43.154;25.658;2023-11-21T04:01:44;100472.88;;;2.22
76713;BMP280;65640;43.154;25.658;2023-11-21T04:04:09;100464.13;;;2.23
76713;BMP280;65640;43.154;25.658;2023-11-21T04:06:34;100463.38;;;2.09
76713;BMP280;65640;43.154;25.658;2023-11-21T04:09:01;100466.75;;;2.17
76713;BMP280;65640;43.154;25.658;2023-11-21T04:11:26;100464.34;;;2.15
76713;BMP280;65640;43.154;25.658;2023-11-21T04:13:53;100465.59;;;2.06
76713;BMP280;65640;43.154;25.658;2023-11-21T04:16:18;100465.59;;;2.06
76713;BMP280;65640;43.154;25.658;2023-11-21T04:18:43;100466.16;;;2.08
76713;BMP280;65640;43.154;25.658;2023-11-21T04:21:09;100479.44;;;2.18
76713;BMP280;65640;43.154;25.658;2023-11-21T04:23:34;100476.47;;;2.15
76713;BMP280;65640;43.154;25.658;2023-11-21T04:26:00;100471.72;;;2.12
76713;BMP280;65640;43.154;25.658;2023-11-21T04:28:28;100473.72;;;2.09
76713;BMP280;65640;43.154;25.658;2023-11-21T04:30:53;100471.75;;;2.05
76713;BMP280;65640;43.154;25.658;2023-11-21T04:33:18;100468.53;;;2.09
76713;BMP280;65640;43.154;25.658;2023-11-21T04:35:43;100474.91;;;2.07
76713;BMP280;65640;43.154;25.658;2023-11-21T04:38:09;100481.25;;;2.11
76713;BMP280;65640;43.154;25.658;2023-11-21T04:40:34;100480.47;;;2.04
76713;BMP280;65640;43.154;25.658;2023-11-21T04:43:00;100485.31;;;1.94
76713;BMP280;65640;43.154;25.658;2023-11-21T04:45:25;100478.25;;;1.76
76713;BMP280;65640;43.154;25.658;2023-11-21T04:47:50;100486.44;;;1.53
76713;BMP280;65640;43.154;25.658;2023-11-21T04:50:17;100468.81;;;1.37
76713;BMP280;65640;43.154;25.658;2023-11-21T04:52:43;100468.88;;;1.24
76713;BMP280;65640;43.154;25.658;2023-11-21T04:55:08;100480.00;;;1.11
76713;BMP280;65640;43.154;25.658;2023-11-21T04:57:35;100480.19;;;1.03
76713;BMP280;65640;43.154;25.658;2023-11-21T05:00:00;100481.00;;;0.90
76713;BMP280;65640;43.154;25.658;2023-11-21T05:02:26;100478.19;;;0.98
76713;BMP280;65640;43.154;25.658;2023-11-21T05:04:51;100480.59;;;1.07
76713;BMP280;65640;43.154;25.658;2023-11-21T05:07:16;100478.59;;;1.09
76713;BMP280;65640;43.154;25.658;2023-11-21T05:09:42;100484.34;;;1.17
76713;BMP280;65640;43.154;25.658;2023-11-21T05:12:11;100489.09;;;1.27
76713;BMP280;65640;43.154;25.658;2023-11-21T05:14:36;100502.19;;;1.12
76713;BMP280;65640;43.154;25.658;2023-11-21T05:17:02;100506.34;;;1.07
76713;BMP280;65640;43.154;25.658;2023-11-21T05:19:29;100509.31;;;1.03
76713;BMP280;65640;43.154;25.658;2023-11-21T05:21:54;100504.16;;;1.03
76713;BMP280;65640;43.154;25.658;2023-11-21T05:24:19;100512.31;;;1.07
76713;BMP280;65640;43.154;25.658;2023-11-21T05:26:45;100503.59;;;1.08
76713;BMP280;65640;43.154;25.658;2023-11-21T05:29:10;100509.31;;;1.23
76713;BMP280;65640;43.154;25.658;2023-11-21T05:31:36;100509.72;;;1.33
76713;BMP280;65640;43.154;25.658;2023-11-21T05:34:01;100514.81;;;1.40
76713;BMP280;65640;43.154;25.658;2023-11-21T05:36:26;100515.91;;;1.84
76713;BMP280;65640;43.154;25.658;2023-11-21T05:38:52;100514.34;;;1.83
76713;BMP280;65640;43.154;25.658;2023-11-21T05:41:17;100514.59;;;1.61
76713;BMP280;65640;43.154;25.658;2023-11-21T05:43:42;100517.00;;;1.36
76713;BMP280;65640;43.154;25.658;2023-11-21T05:46:07;100523.81;;;1.31
76713;BMP280;65640;43.154;25.658;2023-11-21T05:48:34;100529.56;;;1.33
76713;BMP280;65640;43.154;25.658;2023-11-21T05:51:02;100521.97;;;1.38
76713;BMP280;65640;43.154;25.658;2023-11-21T05:53:27;100512.84;;;1.42
76713;BMP280;65640;43.154;25.658;2023-11-21T05:55:52;100509.84;;;1.52
76713;BMP280;65640;43.154;25.658;2023-11-21T05:58:17;100514.56;;;1.74
76713;BMP280;65640;43.154;25.658;2023-11-21T06:00:43;100517.47;;;1.91
76713;BMP280;65640;43.154;25.658;2023-11-21T06:03:08;100515.06;;;1.96
76713;BMP280;65640;43.154;25.658;2023-11-21T06:05:33;100519.84;;;1.99
76713;BMP280;65640;43.154;25.658;2023-11-21T06:07:59;100520.97;;;2.10
76713;BMP280;65640;43.154;25.658;2023-11-21T06:10:25;100522.22;;;2.32
76713;BMP280;65640;43.154;25.658;2023-11-21T06:12:51;100520.75;;;2.50
76713;BMP280;65640;43.154;25.658;2023-11-21T06:15:16;100528.00;;;2.66
76713;BMP280;65640;43.154;25.658;2023-11-21T06:17:44;100533.25;;;2.84
76713;BMP280;65640;43.154;25.658;2023-11-21T06:20:10;100538.28;;;2.97
76713;BMP280;65640;43.154;25.658;2023-11-21T06:22:39;100537.19;;;3.11
76713;BMP280;65640;43.154;25.658;2023-11-21T06:25:05;100538.13;;;3.17
76713;BMP280;65640;43.154;25.658;2023-11-21T06:27:31;100535.22;;;3.32
76713;BMP280;65640;43.154;25.658;2023-11-21T06:29:57;100538.25;;;3.47
76713;BMP280;65640;43.154;25.658;2023-11-21T06:32:22;100530.19;;;3.55
76713;BMP280;65640;43.154;25.658;2023-11-21T06:34:48;100541.13;;;3.57
76713;BMP280;65640;43.154;25.658;2023-11-21T06:37:14;100539.34;;;3.58
76713;BMP280;65640;43.154;25.658;2023-11-21T06:39:39;100546.00;;;3.65
76713;BMP280;65640;43.154;25.658;2023-11-21T06:42:05;100539.47;;;3.81
76713;BMP280;65640;43.154;25.658;2023-11-21T06:44:30;100525.34;;;3.95
76713;BMP280;65640;43.154;25.658;2023-11-21T06:46:55;100532.38;;;4.06
76713;BMP280;65640;43.154;25.658;2023-11-21T06:49:20;100524.34;;;4.26
76713;BMP280;65640;43.154;25.658;2023-11-21T06:51:46;100521.66;;;4.33
76713;BMP280;65640;43.154;25.658;2023-11-21T06:54:11;100518.53;;;4.42
76713;BMP280;65640;43.154;25.658;2023-11-21T06:56:37;100508.97;;;4.54
76713;BMP280;65640;43.154;25.658;2023-11-21T06:59:04;100508.50;;;4.57
76713;BMP280;65640;43.154;25.658;2023-11-21T07:01:30;100509.66;;;4.61
76713;BMP280;65640;43.154;25.658;2023-11-21T07:03:58;100506.31;;;4.73
76713;BMP280;65640;43.154;25.658;2023-11-21T07:06:23;100500.19;;;4.79
76713;BMP280;65640;43.154;25.658;2023-11-21T07:08:48;100502.69;;;4.85
76713;BMP280;65640;43.154;25.658;2023-11-21T07:11:13;100506.19;;;4.91
76713;BMP280;65640;43.154;25.658;2023-11-21T07:13:39;100507.00;;;4.91
76713;BMP280;65640;43.154;25.658;2023-11-21T07:16:04;100505.63;;;4.89
76713;BMP280;65640;43.154;25.658;2023-11-21T07:18:30;100507.84;;;4.97
76713;BMP280;65640;43.154;25.658;2023-11-21T07:20:55;100503.13;;;5.06
76713;BMP280;65640;43.154;25.658;2023-11-21T07:23:20;100499.50;;;5.18
76713;BMP280;65640;43.154;25.658;2023-11-21T07:25:47;100497.22;;;5.33
76713;BMP280;65640;43.154;25.658;2023-11-21T07:28:12;100500.22;;;5.54
76713;BMP280;65640;43.154;25.658;2023-11-21T07:30:38;100498.88;;;5.80
76713;BMP280;65640;43.154;25.658;2023-11-21T07:33:03;100497.44;;;6.00
76713;BMP280;65640;43.154;25.658;2023-11-21T07:35:28;100508.78;;;6.11
76713;BMP280;65640;43.154;25.658;2023-11-21T07:37:53;100504.00;;;6.36
76713;BMP280;65640;43.154;25.658;2023-11-21T07:40:19;100507.22;;;6.60
76713;BMP280;65640;43.154;25.658;2023-11-21T07:42:44;100497.13;;;6.80
76713;BMP280;65640;43.154;25.658;2023-11-21T07:45:09;100494.66;;;6.90
76713;BMP280;65640;43.154;25.658;2023-11-21T07:47:35;100490.66;;;7.05
76713;BMP280;65640;43.154;25.658;2023-11-21T07:50:01;100482.84;;;7.26
76713;BMP280;65640;43.154;25.658;2023-11-21T07:52:28;100488.34;;;7.52
76713;BMP280;65640;43.154;25.658;2023-11-21T07:54:53;100482.00;;;7.69
76713;BMP280;65640;43.154;25.658;2023-11-21T07:57:18;100479.88;;;7.93
76713;BMP280;65640;43.154;25.658;2023-11-21T07:59:43;100480.44;;;8.00
76713;BMP280;65640;43.154;25.658;2023-11-21T08:02:09;100488.13;;;8.12
76713;BMP280;65640;43.154;25.658;2023-11-21T08:04:35;100478.91;;;8.36
76713;BMP280;65640;43.154;25.658;2023-11-21T08:07:00;100472.75;;;8.53
76713;BMP280;65640;43.154;25.658;2023-11-21T08:09:26;100470.22;;;8.68
76713;BMP280;65640;43.154;25.658;2023-11-21T08:11:52;100481.69;;;8.67
76713;BMP280;65640;43.154;25.658;2023-11-21T08:14:18;100485.41;;;8.81
76713;BMP280;65640;43.154;25.658;2023-11-21T08:16:43;100484.97;;;9.04
76713;BMP280;65640;43.154;25.658;2023-11-21T08:19:09;100477.50;;;9.23
76713;BMP280;65640;43.154;25.658;2023-11-21T08:21:35;100469.66;;;9.38
76713;BMP280;65640;43.154;25.658;2023-11-21T08:24:01;100470.50;;;9.44
76713;BMP280;65640;43.154;25.658;2023-11-21T08:26:29;100462.16;;;9.47
76713;BMP280;65640;43.154;25.658;2023-11-21T08:28:54;100462.69;;;9.64
76713;BMP280;65640;43.154;25.658;2023-11-21T08:31:27;100461.09;;;9.78
76713;BMP280;65640;43.154;25.658;2023-11-21T08:33:52;100461.66;;;9.90
76713;BMP280;65640;43.154;25.658;2023-11-21T08:36:20;100451.69;;;10.07
76713;BMP280;65640;43.154;25.658;2023-11-21T08:38:46;100451.13;;;10.21
76713;BMP280;65640;43.154;25.658;2023-11-21T08:41:11;100449.00;;;10.38
76713;BMP280;65640;43.154;25.658;2023-11-21T08:43:37;100443.91;;;10.62
76713;BMP280;65640;43.154;25.658;2023-11-21T08:46:05;100436.81;;;10.77
76713;BMP280;65640;43.154;25.658;2023-11-21T08:48:31;100430.47;;;10.88
76713;BMP280;65640;43.154;25.658;2023-11-21T08:50:56;100426.19;;;11.03
76713;BMP280;65640;43.154;25.658;2023-11-21T08:53:22;100415.13;;;11.11
76713;BMP280;65640;43.154;25.658;2023-11-21T08:55:47;100415.09;;;11.16
76713;BMP280;65640;43.154;25.658;2023-11-21T08:58:15;100412.84;;;11.38
76713;BMP280;65640;43.154;25.658;2023-11-21T09:00:40;100406.41;;;11.54
76713;BMP280;65640;43.154;25.658;2023-11-21T09:03:06;100407.44;;;11.58
76713;BMP280;65640;43.154;25.658;2023-11-21T09:05:34;100403.44;;;11.66
76713;BMP280;65640;43.154;25.658;2023-11-21T09:07:59;100394.28;;;11.63
76713;BMP280;65640;43.154;25.658;2023-11-21T09:10:24;100392.81;;;11.81
76713;BMP280;65640;43.154;25.658;2023-11-21T09:12:50;100388.59;;;12.04
76713;BMP280;65640;43.154;25.658;2023-11-21T09:15:17;100380.13;;;12.12
76713;BMP280;65640;43.154;25.658;2023-11-21T09:17:42;100374.69;;;12.27
76713;BMP280;65640;43.154;25.658;2023-11-21T09:20:08;100364.56;;;12.39
76713;BMP280;65640;43.154;25.658;2023-11-21T09:22:35;100367.91;;;12.45
76713;BMP280;65640;43.154;25.658;2023-11-21T09:25:00;100366.66;;;12.61
76713;BMP280;65640;43.154;25.658;2023-11-21T09:27:25;100366.00;;;12.69
76713;BMP280;65640;43.154;25.658;2023-11-21T09:29:51;100360.63;;;12.79
76713;BMP280;65640;43.154;25.658;2023-11-21T09:32:17;100355.97;;;12.90
76713;BMP280;65640;43.154;25.658;2023-11-21T09:34:43;100355.59;;;12.96
76713;BMP280;65640;43.154;25.658;2023-11-21T09:37:09;100341.59;;;13.01
76713;BMP280;65640;43.154;25.658;2023-11-21T09:39:34;100339.00;;;13.15
76713;BMP280;65640;43.154;25.658;2023-11-21T09:42:12;100334.16;;;13.22
76713;BMP280;65640;43.154;25.658;2023-11-21T09:45:24;100327.94;;;13.31
76713;BMP280;65640;43.154;25.658;2023-11-21T09:47:29;100323.09;;;13.52
76713;BMP280;65640;43.154;25.658;2023-11-21T09:49:55;100322.72;;;13.72
76713;BMP280;65640;43.154;25.658;2023-11-21T09:52:22;100312.66;;;13.88
76713;BMP280;65640;43.154;25.658;2023-11-21T09:54:50;100307.06;;;14.03
76713;BMP280;65640;43.154;25.658;2023-11-21T09:57:16;100311.13;;;14.09
76713;BMP280;65640;43.154;25.658;2023-11-21T09:59:42;100305.59;;;14.11
76713;BMP280;65640;43.154;25.658;2023-11-21T10:02:09;100298.47;;;14.11
76713;BMP280;65640;43.154;25.658;2023-11-21T10:04:38;100297.50;;;14.07
76713;BMP280;65640;43.154;25.658;2023-11-21T10:07:03;100285.50;;;14.15
76713;BMP280;65640;43.154;25.658;2023-11-21T10:09:34;100281.50;;;14.40
76713;BMP280;65640;43.154;25.658;2023-11-21T10:11:59;100279.34;;;14.64
76713;BMP280;65640;43.154;25.658;2023-11-21T10:14:25;100272.59;;;14.80
76713;BMP280;65640;43.154;25.658;2023-11-21T10:16:54;100273.59;;;14.93
76713;BMP280;65640;43.154;25.658;2023-11-21T10:19:20;100266.81;;;15.00
76713;BMP280;65640;43.154;25.658;2023-11-21T10:21:46;100270.53;;;14.99
76713;BMP280;65640;43.154;25.658;2023-11-21T10:24:11;100260.16;;;15.03
76713;BMP280;65640;43.154;25.658;2023-11-21T10:26:37;100255.84;;;15.07
76713;BMP280;65640;43.154;25.658;2023-11-21T10:29:03;100258.19;;;15.17
76713;BMP280;65640;43.154;25.658;2023-11-21T10:31:29;100243.53;;;15.33
76713;BMP280;65640;43.154;25.658;2023-11-21T10:33:56;100248.13;;;15.36
76713;BMP280;65640;43.154;25.658;2023-11-21T10:36:34;100244.00;;;15.44
76713;BMP280;65640;43.154;25.658;2023-11-21T10:39:00;100242.47;;;15.51
76713;BMP280;65640;43.154;25.658;2023-11-21T10:41:25;100230.94;;;15.47
76713;BMP280;65640;43.154;25.658;2023-11-21T10:43:52;100232.03;;;15.38
76713;BMP280;65640;43.154;25.658;2023-11-21T10:46:18;100230.63;;;15.32
76713;BMP280;65640;43.154;25.658;2023-11-21T10:48:43;100221.16;;;15.31
76713;BMP280;65640;43.154;25.658;2023-11-21T10:51:08;100222.84;;;15.27
76713;BMP280;65640;43.154;25.658;2023-11-21T10:53:38;100217.56;;;15.27
76713;BMP280;65640;43.154;25.658;2023-11-21T10:56:05;100211.22;;;15.28
76713;BMP280;65640;43.154;25.658;2023-11-21T10:58:32;100212.00;;;15.37
76713;BMP280;65640;43.154;25.658;2023-11-21T11:00:58;100193.28;;;15.55
76713;BMP280;65640;43.154;25.658;2023-11-21T11:03:23;100191.72;;;15.54
76713;BMP280;65640;43.154;25.658;2023-11-21T11:05:49;100191.72;;;15.63
76713;BMP280;65640;43.154;25.658;2023-11-21T11:08:16;100188.91;;;15.68
76713;BMP280;65640;43.154;25.658;2023-11-21T11:10:45;100184.72;;;15.84
76713;BMP280;65640;43.154;25.658;2023-11-21T11:13:11;100170.53;;;16.15
76713;BMP280;65640;43.154;25.658;2023-11-21T11:15:40;100159.88;;;16.40
76713;BMP280;65640;43.154;25.658;2023-11-21T11:18:05;100163.06;;;16.63
76713;BMP280;65640;43.154;25.658;2023-11-21T11:20:36;100155.59;;;16.65
76713;BMP280;65640;43.154;25.658;2023-11-21T11:25:58;100159.69;;;16.83
76713;BMP280;65640;43.154;25.658;2023-11-21T11:28:38;100141.19;;;16.83
76713;BMP280;65640;43.154;25.658;2023-11-21T11:31:12;100143.66;;;16.88
76713;BMP280;65640;43.154;25.658;2023-11-21T11:33:59;100139.06;;;16.97
76713;BMP280;65640;43.154;25.658;2023-11-21T11:38:51;100133.88;;;17.10
76713;BMP280;65640;43.154;25.658;2023-11-21T11:41:27;100130.75;;;17.08
76713;BMP280;65640;43.154;25.658;2023-11-21T11:43:54;100122.56;;;17.00
76713;BMP280;65640;43.154;25.658;2023-11-21T11:46:20;100116.94;;;17.02
76713;BMP280;65640;43.154;25.658;2023-11-21T11:48:48;100114.09;;;17.07
76713;BMP280;65640;43.154;25.658;2023-11-21T11:51:14;100104.63;;;17.06
76713;BMP280;65640;43.154;25.658;2023-11-21T11:53:43;100099.78;;;17.08
76713;BMP280;65640;43.154;25.658;2023-11-21T11:56:26;100097.06;;;17.17
76713;BMP280;65640;43.154;25.658;2023-11-21T11:58:59;100097.56;;;17.31
76713;BMP280;65640;43.154;25.658;2023-11-21T12:01:25;100094.66;;;17.44
76713;BMP280;65640;43.154;25.658;2023-11-21T12:04:22;100090.56;;;17.47
76713;BMP280;65640;43.154;25.658;2023-11-21T12:06:45;100075.34;;;17.44
76713;BMP280;65640;43.154;25.658;2023-11-21T12:09:21;100077.22;;;17.43
76713;BMP280;65640;43.154;25.658;2023-11-21T12:11:51;100064.41;;;17.33
76713;BMP280;65640;43.154;25.658;2023-11-21T12:14:17;100068.66;;;17.26
76713;BMP280;65640;43.154;25.658;2023-11-21T12:16:43;100068.41;;;17.19
76713;BMP280;65640;43.154;25.658;2023-11-21T12:19:11;100060.59;;;17.10
76713;BMP280;65640;43.154;25.658;2023-11-21T12:21:36;100058.81;;;17.14
76713;BMP280;65640;43.154;25.658;2023-11-21T12:24:02;100056.75;;;17.20
76713;BMP280;65640;43.154;25.658;2023-11-21T12:26:28;100051.78;;;17.18
76713;BMP280;65640;43.154;25.658;2023-11-21T12:28:53;100049.03;;;17.27
76713;BMP280;65640;43.154;25.658;2023-11-21T12:31:21;100045.97;;;17.25
76713;BMP280;65640;43.154;25.658;2023-11-21T12:33:47;100046.28;;;17.23
76713;BMP280;65640;43.154;25.658;2023-11-21T12:36:12;100043.38;;;17.16
76713;BMP280;65640;43.154;25.658;2023-11-21T12:38:38;100044.81;;;17.14
76713;BMP280;65640;43.154;25.658;2023-11-21T12:41:03;100038.19;;;17.08
76713;BMP280;65640;43.154;25.658;2023-11-21T12:43:29;100036.03;;;17.01
76713;BMP280;65640;43.154;25.658;2023-11-21T12:46:10;100033.84;;;17.03
76713;BMP280;65640;43.154;25.658;2023-11-21T12:48:39;100031.28;;;16.94
76713;BMP280;65640;43.154;25.658;2023-11-21T12:51:07;100029.34;;;16.83
76713;BMP280;65640;43.154;25.658;2023-11-21T12:53:32;100028.19;;;16.72
76713;BMP280;65640;43.154;25.658;2023-11-21T12:56:06;100026.53;;;16.67
76713;BMP280;65640;43.154;25.658;2023-11-21T12:58:34;100027.69;;;16.58
76713;BMP280;65640;43.154;25.658;2023-11-21T13:01:00;100026.75;;;16.53
76713;BMP280;65640;43.154;25.658;2023-11-21T13:03:28;100031.19;;;16.41
76713;BMP280;65640;43.154;25.658;2023-11-21T13:05:55;100030.78;;;16.30
76713;BMP280;65640;43.154;25.658;2023-11-21T13:08:22;100025.66;;;16.25
76713;BMP280;65640;43.154;25.658;2023-11-21T13:10:48;100036.53;;;16.24
76713;BMP280;65640;43.154;25.658;2023-11-21T13:13:14;100033.41;;;16.30
76713;BMP280;65640;43.154;25.658;2023-11-21T13:18:14;100036.53;;;16.32
76713;BMP280;65640;43.154;25.658;2023-11-21T13:20:40;100038.03;;;16.42
76713;BMP280;65640;43.154;25.658;2023-11-21T13:23:09;100027.66;;;16.37
76713;BMP280;65640;43.154;25.658;2023-11-21T13:25:37;100031.97;;;16.41
76713;BMP280;65640;43.154;25.658;2023-11-21T13:28:02;100038.50;;;16.44
76713;BMP280;65640;43.154;25.658;2023-11-21T13:30:28;100036.00;;;16.39
76713;BMP280;65640;43.154;25.658;2023-11-21T13:32:59;100030.47;;;16.32
76713;BMP280;65640;43.154;25.658;2023-11-21T13:35:26;100031.38;;;16.36
76713;BMP280;65640;43.154;25.658;2023-11-21T13:38:09;100027.78;;;16.40
76713;BMP280;65640;43.154;25.658;2023-11-21T13:40:35;100028.88;;;16.39
76713;BMP280;65640;43.154;25.658;2023-11-21T13:43:07;100023.75;;;16.43
76713;BMP280;65640;43.154;25.658;2023-11-21T13:45:38;100020.63;;;16.41
76713;BMP280;65640;43.154;25.658;2023-11-21T13:48:04;100015.53;;;16.36
76713;BMP280;65640;43.154;25.658;2023-11-21T13:50:33;100020.81;;;16.36
76713;BMP280;65640;43.154;25.658;2023-11-21T13:53:01;100023.44;;;16.36
76713;BMP280;65640;43.154;25.658;2023-11-21T13:55:47;100026.56;;;16.29